sensor_id;sensor_type;location;lat;lon;timestamp;P1;durP1;ratioP1;P2;durP2;ratioP2
32786;SDS011;19139;49.372;8.580;2024-02-14T00:00:49;9.63;;;7.53;;
32786;SDS011;19139;49.372;8.580;2024-02-14T00:03:16;9.17;;;6.27;;
32786;SDS011;19139;49.372;8.580;2024-02-14T00:05:43;10.67;;;7.43;;
32786;SDS011;19139;49.372;8.580;2024-02-14T00:08:10;11.33;;;7.27;;
32786;SDS011;19139;49.372;8.580;2024-02-14T00:10:37;12.80;;;9.50;;
32786;SDS011;19139;49.372;8.580;2024-02-14T00:13:03;21.37;;;15.00;;
32786;SDS011;19139;49.372;8.580;2024-02-14T00:15:30;10.33;;;6.70;;
32786;SDS011;19139;49.372;8.580;2024-02-14T00:17:56;6.70;;;5.13;;
32786;SDS011;19139;49.372;8.580;2024-02-14T00:20:23;9.37;;;5.40;;
32786;SDS011;19139;49.372;8.580;2024-02-14T00:22:51;8.13;;;5.60;;
32786;SDS011;19139;49.372;8.580;2024-02-14T00:25:17;7.77;;;4.03;;
32786;SDS011;19139;49.372;8.580;2024-02-14T00:27:46;6.67;;;4.83;;
32786;SDS011;19139;49.372;8.580;2024-02-14T00:30:13;8.57;;;5.50;;
32786;SDS011;19139;49.372;8.580;2024-02-14T00:32:40;9.13;;;4.80;;
32786;SDS011;19139;49.372;8.580;2024-02-14T00:35:07;13.07;;;6.43;;
32786;SDS011;19139;49.372;8.580;2024-02-14T00:37:34;9.60;;;5.97;;
32786;SDS011;19139;49.372;8.580;2024-02-14T00:40:01;10.47;;;5.33;;
32786;SDS011;19139;49.372;8.580;2024-02-14T00:42:28;7.57;;;4.27;;
32786;SDS011;19139;49.372;8.580;2024-02-14T00:44:55;7.30;;;4.20;;
32786;SDS011;19139;49.372;8.580;2024-02-14T00:47:22;8.43;;;4.57;;
32786;SDS011;19139;49.372;8.580;2024-02-14T00:49:49;7.77;;;4.20;;
32786;SDS011;19139;49.372;8.580;2024-02-14T00:52:15;9.03;;;4.40;;
32786;SDS011;19139;49.372;8.580;2024-02-14T00:54:42;9.37;;;3.77;;
32786;SDS011;19139;49.372;8.580;2024-02-14T00:57:09;7.27;;;4.37;;
32786;SDS011;19139;49.372;8.580;2024-02-14T00:59:36;8.77;;;4.17;;
32786;SDS011;19139;49.372;8.580;2024-02-14T01:02:02;6.33;;;4.10;;
32786;SDS011;19139;49.372;8.580;2024-02-14T01:04:29;4.77;;;3.83;;
32786;SDS011;19139;49.372;8.580;2024-02-14T01:06:56;8.30;;;3.90;;
32786;SDS011;19139;49.372;8.580;2024-02-14T01:09:23;8.77;;;5.10;;
32786;SDS011;19139;49.372;8.580;2024-02-14T01:11:49;5.73;;;3.70;;
32786;SDS011;19139;49.372;8.580;2024-02-14T01:14:16;6.90;;;3.47;;
32786;SDS011;19139;49.372;8.580;2024-02-14T01:16:46;5.27;;;3.87;;
32786;SDS011;19139;49.372;8.580;2024-02-14T01:19:13;6.30;;;4.00;;
32786;SDS011;19139;49.372;8.580;2024-02-14T01:21:40;6.37;;;4.30;;
32786;SDS011;19139;49.372;8.580;2024-02-14T01:24:07;8.07;;;4.00;;
32786;SDS011;19139;49.372;8.580;2024-02-14T01:26:35;9.07;;;4.00;;
32786;SDS011;19139;49.372;8.580;2024-02-14T01:29:02;4.87;;;3.10;;
32786;SDS011;19139;49.372;8.580;2024-02-14T01:31:28;5.97;;;4.03;;
32786;SDS011;19139;49.372;8.580;2024-02-14T01:33:55;7.77;;;4.03;;
32786;SDS011;19139;49.372;8.580;2024-02-14T01:36:24;7.00;;;3.70;;
32786;SDS011;19139;49.372;8.580;2024-02-14T01:38:50;7.27;;;4.50;;
32786;SDS011;19139;49.372;8.580;2024-02-14T01:41:17;7.13;;;4.30;;
32786;SDS011;19139;49.372;8.580;2024-02-14T01:43:43;6.20;;;4.50;;
32786;SDS011;19139;49.372;8.580;2024-02-14T01:46:11;6.27;;;4.60;;
32786;SDS011;19139;49.372;8.580;2024-02-14T01:48:37;9.03;;;4.73;;
32786;SDS011;19139;49.372;8.580;2024-02-14T01:51:06;7.20;;;4.00;;
32786;SDS011;19139;49.372;8.580;2024-02-14T01:53:37;12.30;;;5.43;;
32786;SDS011;19139;49.372;8.580;2024-02-14T01:56:04;6.60;;;4.60;;
32786;SDS011;19139;49.372;8.580;2024-02-14T01:58:32;9.07;;;4.90;;
32786;SDS011;19139;49.372;8.580;2024-02-14T02:01:00;7.87;;;5.30;;
32786;SDS011;19139;49.372;8.580;2024-02-14T02:03:27;5.83;;;4.10;;
32786;SDS011;19139;49.372;8.580;2024-02-14T02:05:54;8.73;;;4.80;;
32786;SDS011;19139;49.372;8.580;2024-02-14T02:08:22;6.93;;;4.40;;
32786;SDS011;19139;49.372;8.580;2024-02-14T02:10:48;7.00;;;4.30;;
32786;SDS011;19139;49.372;8.580;2024-02-14T02:13:15;7.30;;;4.40;;
32786;SDS011;19139;49.372;8.580;2024-02-14T02:15:42;7.03;;;4.50;;
32786;SDS011;19139;49.372;8.580;2024-02-14T02:18:12;7.43;;;5.00;;
32786;SDS011;19139;49.372;8.580;2024-02-14T02:20:41;6.90;;;4.23;;
32786;SDS011;19139;49.372;8.580;2024-02-14T02:23:10;6.23;;;3.90;;
32786;SDS011;19139;49.372;8.580;2024-02-14T02:25:41;6.43;;;4.13;;
32786;SDS011;19139;49.372;8.580;2024-02-14T02:28:08;6.50;;;3.97;;
32786;SDS011;19139;49.372;8.580;2024-02-14T02:30:35;5.87;;;4.10;;
32786;SDS011;19139;49.372;8.580;2024-02-14T02:33:03;5.97;;;4.37;;
32786;SDS011;19139;49.372;8.580;2024-02-14T02:35:33;7.23;;;4.50;;
32786;SDS011;19139;49.372;8.580;2024-02-14T02:38:00;5.43;;;4.03;;
32786;SDS011;19139;49.372;8.580;2024-02-14T02:40:27;7.10;;;4.13;;
32786;SDS011;19139;49.372;8.580;2024-02-14T02:42:54;7.43;;;3.87;;
32786;SDS011;19139;49.372;8.580;2024-02-14T02:45:21;5.27;;;3.90;;
32786;SDS011;19139;49.372;8.580;2024-02-14T02:47:48;4.60;;;3.67;;
32786;SDS011;19139;49.372;8.580;2024-02-14T02:50:18;5.80;;;3.60;;
32786;SDS011;19139;49.372;8.580;2024-02-14T02:52:46;6.17;;;3.63;;
32786;SDS011;19139;49.372;8.580;2024-02-14T02:55:12;7.77;;;4.20;;
32786;SDS011;19139;49.372;8.580;2024-02-14T02:57:40;5.37;;;3.57;;
32786;SDS011;19139;49.372;8.580;2024-02-14T03:00:07;7.60;;;3.57;;
32786;SDS011;19139;49.372;8.580;2024-02-14T03:02:35;5.50;;;3.97;;
32786;SDS011;19139;49.372;8.580;2024-02-14T03:05:04;5.03;;;3.50;;
32786;SDS011;19139;49.372;8.580;2024-02-14T03:07:36;7.70;;;4.10;;
32786;SDS011;19139;49.372;8.580;2024-02-14T03:10:03;6.50;;;3.37;;
32786;SDS011;19139;49.372;8.580;2024-02-14T03:12:31;6.07;;;3.53;;
32786;SDS011;19139;49.372;8.580;2024-02-14T03:14:58;7.90;;;4.10;;
32786;SDS011;19139;49.372;8.580;2024-02-14T03:17:25;7.10;;;3.30;;
32786;SDS011;19139;49.372;8.580;2024-02-14T03:19:54;5.43;;;3.90;;
32786;SDS011;19139;49.372;8.580;2024-02-14T03:22:22;8.63;;;3.73;;
32786;SDS011;19139;49.372;8.580;2024-02-14T03:24:49;5.80;;;3.70;;
32786;SDS011;19139;49.372;8.580;2024-02-14T03:27:16;6.97;;;3.63;;
32786;SDS011;19139;49.372;8.580;2024-02-14T03:29:44;6.33;;;3.87;;
32786;SDS011;19139;49.372;8.580;2024-02-14T03:32:10;8.13;;;3.70;;
32786;SDS011;19139;49.372;8.580;2024-02-14T03:34:37;5.80;;;3.87;;
32786;SDS011;19139;49.372;8.580;2024-02-14T03:37:04;7.87;;;4.40;;
32786;SDS011;19139;49.372;8.580;2024-02-14T03:39:33;5.73;;;3.77;;
32786;SDS011;19139;49.372;8.580;2024-02-14T03:42:00;6.37;;;3.63;;
32786;SDS011;19139;49.372;8.580;2024-02-14T03:44:29;6.30;;;3.83;;
32786;SDS011;19139;49.372;8.580;2024-02-14T03:46:57;7.23;;;4.43;;
32786;SDS011;19139;49.372;8.580;2024-02-14T03:49:23;5.27;;;3.63;;
32786;SDS011;19139;49.372;8.580;2024-02-14T03:51:52;4.90;;;3.70;;
32786;SDS011;19139;49.372;8.580;2024-02-14T03:54:22;5.97;;;3.80;;
32786;SDS011;19139;49.372;8.580;2024-02-14T03:56:49;7.20;;;3.57;;
32786;SDS011;19139;49.372;8.580;2024-02-14T03:59:17;8.30;;;3.73;;
32786;SDS011;19139;49.372;8.580;2024-02-14T04:01:50;6.70;;;4.13;;
32786;SDS011;19139;49.372;8.580;2024-02-14T04:04:19;7.77;;;4.53;;
32786;SDS011;19139;49.372;8.580;2024-02-14T04:06:46;7.40;;;4.13;;
32786;SDS011;19139;49.372;8.580;2024-02-14T04:09:14;7.20;;;3.93;;
32786;SDS011;19139;49.372;8.580;2024-02-14T04:11:40;8.13;;;3.70;;
32786;SDS011;19139;49.372;8.580;2024-02-14T04:14:07;5.67;;;3.67;;
32786;SDS011;19139;49.372;8.580;2024-02-14T04:16:34;5.67;;;3.60;;
32786;SDS011;19139;49.372;8.580;2024-02-14T04:19:02;10.07;;;4.90;;
32786;SDS011;19139;49.372;8.580;2024-02-14T04:21:30;5.47;;;3.60;;
32786;SDS011;19139;49.372;8.580;2024-02-14T04:23:57;7.67;;;4.60;;
32786;SDS011;19139;49.372;8.580;2024-02-14T04:26:24;6.37;;;3.37;;
32786;SDS011;19139;49.372;8.580;2024-02-14T04:28:51;7.30;;;3.90;;
32786;SDS011;19139;49.372;8.580;2024-02-14T04:31:18;5.73;;;3.50;;
32786;SDS011;19139;49.372;8.580;2024-02-14T04:33:45;5.00;;;3.27;;
32786;SDS011;19139;49.372;8.580;2024-02-14T04:36:18;6.63;;;3.70;;
32786;SDS011;19139;49.372;8.580;2024-02-14T04:38:46;7.40;;;4.17;;
32786;SDS011;19139;49.372;8.580;2024-02-14T04:41:14;4.83;;;3.60;;
32786;SDS011;19139;49.372;8.580;2024-02-14T04:43:41;9.70;;;4.10;;
32786;SDS011;19139;49.372;8.580;2024-02-14T04:46:08;4.87;;;3.60;;
32786;SDS011;19139;49.372;8.580;2024-02-14T04:48:35;7.20;;;3.50;;
32786;SDS011;19139;49.372;8.580;2024-02-14T04:51:03;7.53;;;4.03;;
32786;SDS011;19139;49.372;8.580;2024-02-14T04:53:33;8.87;;;3.77;;
32786;SDS011;19139;49.372;8.580;2024-02-14T04:56:00;8.77;;;4.10;;
32786;SDS011;19139;49.372;8.580;2024-02-14T04:58:27;7.17;;;3.70;;
32786;SDS011;19139;49.372;8.580;2024-02-14T05:00:53;6.73;;;4.03;;
32786;SDS011;19139;49.372;8.580;2024-02-14T05:03:21;7.13;;;4.07;;
32786;SDS011;19139;49.372;8.580;2024-02-14T05:05:50;6.47;;;3.97;;
32786;SDS011;19139;49.372;8.580;2024-02-14T05:08:17;6.80;;;3.97;;
32786;SDS011;19139;49.372;8.580;2024-02-14T05:10:43;6.20;;;3.70;;
32786;SDS011;19139;49.372;8.580;2024-02-14T05:13:11;9.73;;;4.33;;
32786;SDS011;19139;49.372;8.580;2024-02-14T05:15:39;8.50;;;5.23;;
32786;SDS011;19139;49.372;8.580;2024-02-14T05:18:05;6.13;;;4.00;;
32786;SDS011;19139;49.372;8.580;2024-02-14T05:20:33;6.10;;;4.33;;
32786;SDS011;19139;49.372;8.580;2024-02-14T05:22:59;8.60;;;4.20;;
32786;SDS011;19139;49.372;8.580;2024-02-14T05:25:26;5.83;;;4.23;;
32786;SDS011;19139;49.372;8.580;2024-02-14T05:27:55;5.60;;;4.10;;
32786;SDS011;19139;49.372;8.580;2024-02-14T05:30:22;6.37;;;3.90;;
32786;SDS011;19139;49.372;8.580;2024-02-14T05:32:49;7.53;;;3.90;;
32786;SDS011;19139;49.372;8.580;2024-02-14T05:35:17;8.10;;;4.20;;
32786;SDS011;19139;49.372;8.580;2024-02-14T05:37:44;5.20;;;3.80;;
32786;SDS011;19139;49.372;8.580;2024-02-14T05:40:15;8.00;;;4.60;;
32786;SDS011;19139;49.372;8.580;2024-02-14T05:42:42;22.00;;;13.30;;
32786;SDS011;19139;49.372;8.580;2024-02-14T05:45:12;20.67;;;12.47;;
32786;SDS011;19139;49.372;8.580;2024-02-14T05:47:39;21.77;;;12.67;;
32786;SDS011;19139;49.372;8.580;2024-02-14T05:50:06;13.00;;;7.97;;
32786;SDS011;19139;49.372;8.580;2024-02-14T05:52:35;12.50;;;7.20;;
32786;SDS011;19139;49.372;8.580;2024-02-14T05:55:02;11.83;;;6.60;;
32786;SDS011;19139;49.372;8.580;2024-02-14T05:57:29;8.33;;;4.90;;
32786;SDS011;19139;49.372;8.580;2024-02-14T05:59:56;7.57;;;4.87;;
32786;SDS011;19139;49.372;8.580;2024-02-14T06:02:23;5.93;;;4.20;;
32786;SDS011;19139;49.372;8.580;2024-02-14T06:04:49;7.03;;;4.63;;
32786;SDS011;19139;49.372;8.580;2024-02-14T06:07:17;5.17;;;4.33;;
32786;SDS011;19139;49.372;8.580;2024-02-14T06:09:43;6.87;;;4.73;;
32786;SDS011;19139;49.372;8.580;2024-02-14T06:12:11;11.10;;;4.90;;
32786;SDS011;19139;49.372;8.580;2024-02-14T06:14:38;8.67;;;6.03;;
32786;SDS011;19139;49.372;8.580;2024-02-14T06:17:05;12.27;;;5.50;;
32786;SDS011;19139;49.372;8.580;2024-02-14T06:19:32;6.83;;;5.00;;
32786;SDS011;19139;49.372;8.580;2024-02-14T06:22:05;7.33;;;4.53;;
32786;SDS011;19139;49.372;8.580;2024-02-14T06:24:32;9.07;;;5.03;;
32786;SDS011;19139;49.372;8.580;2024-02-14T06:26:58;7.63;;;3.73;;
32786;SDS011;19139;49.372;8.580;2024-02-14T06:29:26;6.90;;;3.97;;
32786;SDS011;19139;49.372;8.580;2024-02-14T06:31:53;7.10;;;4.03;;
32786;SDS011;19139;49.372;8.580;2024-02-14T06:34:20;6.07;;;4.37;;
32786;SDS011;19139;49.372;8.580;2024-02-14T06:36:47;5.77;;;4.37;;
32786;SDS011;19139;49.372;8.580;2024-02-14T06:39:13;8.13;;;4.33;;
32786;SDS011;19139;49.372;8.580;2024-02-14T06:41:40;6.40;;;3.60;;
32786;SDS011;19139;49.372;8.580;2024-02-14T06:44:07;7.07;;;4.07;;
32786;SDS011;19139;49.372;8.580;2024-02-14T06:46:34;8.37;;;3.80;;
32786;SDS011;19139;49.372;8.580;2024-02-14T06:49:03;7.43;;;3.97;;
32786;SDS011;19139;49.372;8.580;2024-02-14T06:51:31;7.50;;;3.63;;
32786;SDS011;19139;49.372;8.580;2024-02-14T06:53:57;7.23;;;3.43;;
32786;SDS011;19139;49.372;8.580;2024-02-14T06:56:24;8.37;;;4.87;;
32786;SDS011;19139;49.372;8.580;2024-02-14T06:58:51;6.10;;;3.57;;
32786;SDS011;19139;49.372;8.580;2024-02-14T07:01:20;7.07;;;3.43;;
32786;SDS011;19139;49.372;8.580;2024-02-14T07:03:51;5.57;;;3.77;;
32786;SDS011;19139;49.372;8.580;2024-02-14T07:06:18;5.67;;;3.70;;
32786;SDS011;19139;49.372;8.580;2024-02-14T07:08:45;10.43;;;3.87;;
32786;SDS011;19139;49.372;8.580;2024-02-14T07:11:11;6.93;;;4.13;;
32786;SDS011;19139;49.372;8.580;2024-02-14T07:13:38;6.90;;;3.90;;
32786;SDS011;19139;49.372;8.580;2024-02-14T07:16:05;6.83;;;3.53;;
32786;SDS011;19139;49.372;8.580;2024-02-14T07:18:36;7.10;;;3.47;;
32786;SDS011;19139;49.372;8.580;2024-02-14T07:21:03;10.70;;;3.70;;
32786;SDS011;19139;49.372;8.580;2024-02-14T07:23:31;7.17;;;4.10;;
32786;SDS011;19139;49.372;8.580;2024-02-14T07:26:00;7.30;;;3.33;;
32786;SDS011;19139;49.372;8.580;2024-02-14T07:28:29;5.50;;;3.53;;
32786;SDS011;19139;49.372;8.580;2024-02-14T07:30:56;5.73;;;3.20;;
32786;SDS011;19139;49.372;8.580;2024-02-14T07:33:23;9.20;;;4.03;;
32786;SDS011;19139;49.372;8.580;2024-02-14T07:35:50;7.90;;;4.30;;
32786;SDS011;19139;49.372;8.580;2024-02-14T07:38:17;5.50;;;3.93;;
32786;SDS011;19139;49.372;8.580;2024-02-14T07:40:43;6.63;;;4.13;;
32786;SDS011;19139;49.372;8.580;2024-02-14T07:43:10;8.83;;;4.53;;
32786;SDS011;19139;49.372;8.580;2024-02-14T07:45:37;6.93;;;4.07;;
32786;SDS011;19139;49.372;8.580;2024-02-14T07:48:04;7.53;;;4.10;;
32786;SDS011;19139;49.372;8.580;2024-02-14T07:50:31;8.20;;;4.40;;
32786;SDS011;19139;49.372;8.580;2024-02-14T07:52:58;7.13;;;3.80;;
32786;SDS011;19139;49.372;8.580;2024-02-14T07:55:25;13.63;;;6.23;;
32786;SDS011;19139;49.372;8.580;2024-02-14T07:57:52;10.20;;;4.17;;
32786;SDS011;19139;49.372;8.580;2024-02-14T08:00:19;8.87;;;4.97;;
32786;SDS011;19139;49.372;8.580;2024-02-14T08:02:49;6.97;;;3.13;;
32786;SDS011;19139;49.372;8.580;2024-02-14T08:05:16;13.57;;;5.70;;
32786;SDS011;19139;49.372;8.580;2024-02-14T08:07:44;9.83;;;5.00;;
32786;SDS011;19139;49.372;8.580;2024-02-14T08:10:11;6.53;;;3.67;;
32786;SDS011;19139;49.372;8.580;2024-02-14T08:12:38;9.27;;;3.87;;
32786;SDS011;19139;49.372;8.580;2024-02-14T08:15:05;6.67;;;3.93;;
32786;SDS011;19139;49.372;8.580;2024-02-14T08:17:32;7.50;;;3.83;;
32786;SDS011;19139;49.372;8.580;2024-02-14T08:20:03;8.37;;;4.00;;
32786;SDS011;19139;49.372;8.580;2024-02-14T08:22:31;10.80;;;4.30;;
32786;SDS011;19139;49.372;8.580;2024-02-14T08:24:58;6.93;;;3.60;;
32786;SDS011;19139;49.372;8.580;2024-02-14T08:27:25;7.73;;;4.40;;
32786;SDS011;19139;49.372;8.580;2024-02-14T08:29:52;7.27;;;4.17;;
32786;SDS011;19139;49.372;8.580;2024-02-14T08:32:19;6.70;;;3.27;;
32786;SDS011;19139;49.372;8.580;2024-02-14T08:34:47;11.00;;;4.43;;
32786;SDS011;19139;49.372;8.580;2024-02-14T08:37:14;7.83;;;4.70;;
32786;SDS011;19139;49.372;8.580;2024-02-14T08:39:40;7.60;;;4.53;;
32786;SDS011;19139;49.372;8.580;2024-02-14T08:42:07;6.47;;;4.40;;
32786;SDS011;19139;49.372;8.580;2024-02-14T08:44:35;7.13;;;4.63;;
32786;SDS011;19139;49.372;8.580;2024-02-14T08:47:03;9.40;;;5.60;;
32786;SDS011;19139;49.372;8.580;2024-02-14T08:49:30;6.37;;;4.60;;
32786;SDS011;19139;49.372;8.580;2024-02-14T08:51:57;6.10;;;4.23;;
32786;SDS011;19139;49.372;8.580;2024-02-14T08:54:24;8.20;;;4.27;;
32786;SDS011;19139;49.372;8.580;2024-02-14T08:56:50;10.40;;;5.40;;
32786;SDS011;19139;49.372;8.580;2024-02-14T08:59:21;7.83;;;4.37;;
32786;SDS011;19139;49.372;8.580;2024-02-14T09:01:48;6.23;;;5.27;;
32786;SDS011;19139;49.372;8.580;2024-02-14T09:04:15;4.53;;;3.90;;
32786;SDS011;19139;49.372;8.580;2024-02-14T09:06:42;12.00;;;7.23;;
32786;SDS011;19139;49.372;8.580;2024-02-14T09:09:09;8.30;;;4.87;;
32786;SDS011;19139;49.372;8.580;2024-02-14T09:11:37;8.90;;;3.97;;
32786;SDS011;19139;49.372;8.580;2024-02-14T09:14:03;5.33;;;4.27;;
32786;SDS011;19139;49.372;8.580;2024-02-14T09:16:33;8.70;;;3.90;;
32786;SDS011;19139;49.372;8.580;2024-02-14T09:19:00;9.10;;;4.77;;
32786;SDS011;19139;49.372;8.580;2024-02-14T09:21:27;8.63;;;4.10;;
32786;SDS011;19139;49.372;8.580;2024-02-14T09:23:54;7.43;;;4.10;;
32786;SDS011;19139;49.372;8.580;2024-02-14T09:26:21;5.23;;;3.70;;
32786;SDS011;19139;49.372;8.580;2024-02-14T09:28:48;7.63;;;4.30;;
32786;SDS011;19139;49.372;8.580;2024-02-14T09:31:18;6.70;;;4.40;;
32786;SDS011;19139;49.372;8.580;2024-02-14T09:33:48;7.40;;;5.50;;
32786;SDS011;19139;49.372;8.580;2024-02-14T09:36:16;5.90;;;3.60;;
32786;SDS011;19139;49.372;8.580;2024-02-14T09:38:43;8.20;;;4.33;;
32786;SDS011;19139;49.372;8.580;2024-02-14T09:41:32;5.10;;;3.63;;
32786;SDS011;19139;49.372;8.580;2024-02-14T09:44:00;6.07;;;3.80;;
32786;SDS011;19139;49.372;8.580;2024-02-14T09:46:26;6.80;;;3.50;;
32786;SDS011;19139;49.372;8.580;2024-02-14T09:48:56;5.10;;;3.13;;
32786;SDS011;19139;49.372;8.580;2024-02-14T09:51:26;5.00;;;3.10;;
32786;SDS011;19139;49.372;8.580;2024-02-14T09:53:53;5.17;;;4.03;;
32786;SDS011;19139;49.372;8.580;2024-02-14T09:56:21;7.17;;;3.67;;
32786;SDS011;19139;49.372;8.580;2024-02-14T09:58:50;6.97;;;3.40;;
32786;SDS011;19139;49.372;8.580;2024-02-14T10:01:23;5.57;;;3.87;;
32786;SDS011;19139;49.372;8.580;2024-02-14T10:03:51;7.20;;;3.33;;
32786;SDS011;19139;49.372;8.580;2024-02-14T10:06:18;6.77;;;3.47;;
32786;SDS011;19139;49.372;8.580;2024-02-14T10:08:48;6.10;;;3.90;;
32786;SDS011;19139;49.372;8.580;2024-02-14T10:11:29;7.53;;;3.67;;
32786;SDS011;19139;49.372;8.580;2024-02-14T10:13:59;13.00;;;5.10;;
32786;SDS011;19139;49.372;8.580;2024-02-14T10:16:31;9.70;;;3.87;;
32786;SDS011;19139;49.372;8.580;2024-02-14T10:18:57;6.30;;;4.07;;
32786;SDS011;19139;49.372;8.580;2024-02-14T10:21:25;6.70;;;3.63;;
32786;SDS011;19139;49.372;8.580;2024-02-14T10:23:52;4.50;;;3.30;;
32786;SDS011;19139;49.372;8.580;2024-02-14T10:26:19;4.60;;;2.93;;
32786;SDS011;19139;49.372;8.580;2024-02-14T10:28:46;5.47;;;3.13;;
32786;SDS011;19139;49.372;8.580;2024-02-14T10:31:15;6.33;;;3.13;;
32786;SDS011;19139;49.372;8.580;2024-02-14T10:33:42;5.47;;;3.53;;
32786;SDS011;19139;49.372;8.580;2024-02-14T10:36:09;7.87;;;3.40;;
32786;SDS011;19139;49.372;8.580;2024-02-14T10:38:39;5.77;;;3.03;;
32786;SDS011;19139;49.372;8.580;2024-02-14T10:41:06;5.37;;;3.10;;
32786;SDS011;19139;49.372;8.580;2024-02-14T10:43:36;7.10;;;3.53;;
32786;SDS011;19139;49.372;8.580;2024-02-14T10:46:07;4.50;;;2.73;;
32786;SDS011;19139;49.372;8.580;2024-02-14T10:48:38;4.83;;;2.70;;
32786;SDS011;19139;49.372;8.580;2024-02-14T10:51:05;8.10;;;3.63;;
32786;SDS011;19139;49.372;8.580;2024-02-14T10:53:36;4.73;;;2.80;;
32786;SDS011;19139;49.372;8.580;2024-02-14T10:56:13;4.77;;;3.03;;
32786;SDS011;19139;49.372;8.580;2024-02-14T10:58:45;3.87;;;2.90;;
32786;SDS011;19139;49.372;8.580;2024-02-14T11:01:13;4.60;;;2.70;;
32786;SDS011;19139;49.372;8.580;2024-02-14T11:03:43;7.20;;;3.50;;
32786;SDS011;19139;49.372;8.580;2024-02-14T11:06:15;8.70;;;2.97;;
32786;SDS011;19139;49.372;8.580;2024-02-14T11:08:58;4.47;;;3.10;;
32786;SDS011;19139;49.372;8.580;2024-02-14T11:11:28;7.57;;;3.67;;
32786;SDS011;19139;49.372;8.580;2024-02-14T11:13:57;4.27;;;3.10;;
32786;SDS011;19139;49.372;8.580;2024-02-14T11:16:27;4.67;;;2.87;;
32786;SDS011;19139;49.372;8.580;2024-02-14T11:19:08;4.43;;;2.70;;
32786;SDS011;19139;49.372;8.580;2024-02-14T11:21:39;7.73;;;2.73;;
32786;SDS011;19139;49.372;8.580;2024-02-14T11:24:12;5.37;;;2.60;;
32786;SDS011;19139;49.372;8.580;2024-02-14T11:26:48;4.27;;;2.83;;
32786;SDS011;19139;49.372;8.580;2024-02-14T11:29:19;3.60;;;2.40;;
32786;SDS011;19139;49.372;8.580;2024-02-14T11:31:57;6.40;;;2.73;;
32786;SDS011;19139;49.372;8.580;2024-02-14T11:34:28;3.57;;;2.53;;
32786;SDS011;19139;49.372;8.580;2024-02-14T11:37:02;5.20;;;2.70;;
32786;SDS011;19139;49.372;8.580;2024-02-14T11:39:29;7.43;;;2.37;;
32786;SDS011;19139;49.372;8.580;2024-02-14T11:41:57;5.27;;;2.53;;
32786;SDS011;19139;49.372;8.580;2024-02-14T11:44:25;3.37;;;2.40;;
32786;SDS011;19139;49.372;8.580;2024-02-14T11:46:52;3.83;;;2.93;;
32786;SDS011;19139;49.372;8.580;2024-02-14T11:49:20;3.80;;;2.47;;
32786;SDS011;19139;49.372;8.580;2024-02-14T11:51:47;3.80;;;2.90;;
32786;SDS011;19139;49.372;8.580;2024-02-14T11:54:14;3.93;;;2.80;;
32786;SDS011;19139;49.372;8.580;2024-02-14T11:56:41;3.70;;;2.73;;
32786;SDS011;19139;49.372;8.580;2024-02-14T11:59:09;4.30;;;2.17;;
32786;SDS011;19139;49.372;8.580;2024-02-14T12:01:36;4.07;;;2.33;;
32786;SDS011;19139;49.372;8.580;2024-02-14T12:04:05;5.67;;;2.50;;
32786;SDS011;19139;49.372;8.580;2024-02-14T12:06:35;4.03;;;1.90;;
32786;SDS011;19139;49.372;8.580;2024-02-14T12:09:03;5.23;;;2.57;;
32786;SDS011;19139;49.372;8.580;2024-02-14T12:11:35;3.40;;;2.27;;
32786;SDS011;19139;49.372;8.580;2024-02-14T12:14:07;3.43;;;2.10;;
32786;SDS011;19139;49.372;8.580;2024-02-14T12:16:36;4.33;;;2.53;;
32786;SDS011;19139;49.372;8.580;2024-02-14T12:19:04;3.93;;;2.50;;
32786;SDS011;19139;49.372;8.580;2024-02-14T12:21:37;8.90;;;2.50;;
32786;SDS011;19139;49.372;8.580;2024-02-14T12:24:08;4.67;;;2.30;;
32786;SDS011;19139;49.372;8.580;2024-02-14T12:26:37;3.97;;;2.70;;
32786;SDS011;19139;49.372;8.580;2024-02-14T12:29:05;4.60;;;2.63;;
32786;SDS011;19139;49.372;8.580;2024-02-14T12:31:33;4.10;;;2.20;;
32786;SDS011;19139;49.372;8.580;2024-02-14T12:34:01;3.23;;;2.00;;
32786;SDS011;19139;49.372;8.580;2024-02-14T12:36:29;3.20;;;1.90;;
32786;SDS011;19139;49.372;8.580;2024-02-14T12:38:56;4.20;;;2.13;;
32786;SDS011;19139;49.372;8.580;2024-02-14T12:41:23;5.27;;;2.17;;
32786;SDS011;19139;49.372;8.580;2024-02-14T12:43:52;2.10;;;1.90;;
32786;SDS011;19139;49.372;8.580;2024-02-14T12:46:19;4.57;;;2.13;;
32786;SDS011;19139;49.372;8.580;2024-02-14T12:48:46;3.53;;;1.80;;
32786;SDS011;19139;49.372;8.580;2024-02-14T12:51:14;3.33;;;1.90;;
32786;SDS011;19139;49.372;8.580;2024-02-14T12:53:43;9.80;;;6.47;;
32786;SDS011;19139;49.372;8.580;2024-02-14T12:56:10;4.20;;;2.20;;
32786;SDS011;19139;49.372;8.580;2024-02-14T12:58:37;4.33;;;2.27;;
32786;SDS011;19139;49.372;8.580;2024-02-14T13:01:04;3.00;;;1.77;;
32786;SDS011;19139;49.372;8.580;2024-02-14T13:03:32;4.50;;;3.30;;
32786;SDS011;19139;49.372;8.580;2024-02-14T13:05:59;4.03;;;2.20;;
32786;SDS011;19139;49.372;8.580;2024-02-14T13:08:26;3.70;;;1.53;;
32786;SDS011;19139;49.372;8.580;2024-02-14T13:10:53;3.00;;;1.70;;
32786;SDS011;19139;49.372;8.580;2024-02-14T13:13:20;2.47;;;1.70;;
32786;SDS011;19139;49.372;8.580;2024-02-14T13:15:47;2.47;;;1.53;;
32786;SDS011;19139;49.372;8.580;2024-02-14T13:18:13;1.70;;;1.20;;
32786;SDS011;19139;49.372;8.580;2024-02-14T13:20:40;2.93;;;1.30;;
32786;SDS011;19139;49.372;8.580;2024-02-14T13:23:08;2.97;;;1.60;;
32786;SDS011;19139;49.372;8.580;2024-02-14T13:25:35;2.77;;;2.20;;
32786;SDS011;19139;49.372;8.580;2024-02-14T13:28:03;3.83;;;2.27;;
32786;SDS011;19139;49.372;8.580;2024-02-14T13:30:31;3.33;;;3.03;;
32786;SDS011;19139;49.372;8.580;2024-02-14T13:32:59;3.03;;;2.13;;
32786;SDS011;19139;49.372;8.580;2024-02-14T13:35:26;2.23;;;1.80;;
32786;SDS011;19139;49.372;8.580;2024-02-14T13:37:54;2.80;;;1.47;;
32786;SDS011;19139;49.372;8.580;2024-02-14T13:40:22;3.17;;;1.60;;
32786;SDS011;19139;49.372;8.580;2024-02-14T13:42:49;2.37;;;1.40;;
32786;SDS011;19139;49.372;8.580;2024-02-14T13:45:15;2.93;;;1.20;;
32786;SDS011;19139;49.372;8.580;2024-02-14T13:47:42;2.03;;;1.10;;
32786;SDS011;19139;49.372;8.580;2024-02-14T13:50:10;1.27;;;1.10;;
32786;SDS011;19139;49.372;8.580;2024-02-14T13:52:37;1.80;;;1.10;;
32786;SDS011;19139;49.372;8.580;2024-02-14T13:55:04;1.07;;;0.80;;
32786;SDS011;19139;49.372;8.580;2024-02-14T13:57:34;1.20;;;0.80;;
32786;SDS011;19139;49.372;8.580;2024-02-14T14:00:07;2.53;;;1.40;;
32786;SDS011;19139;49.372;8.580;2024-02-14T14:02:35;1.77;;;1.03;;
32786;SDS011;19139;49.372;8.580;2024-02-14T14:05:09;2.83;;;1.23;;
32786;SDS011;19139;49.372;8.580;2024-02-14T14:07:36;2.70;;;0.90;;
32786;SDS011;19139;49.372;8.580;2024-02-14T14:10:23;2.67;;;1.10;;
32786;SDS011;19139;49.372;8.580;2024-02-14T14:12:52;1.53;;;1.10;;
32786;SDS011;19139;49.372;8.580;2024-02-14T14:15:19;2.20;;;0.83;;
32786;SDS011;19139;49.372;8.580;2024-02-14T14:17:45;1.20;;;0.93;;
32786;SDS011;19139;49.372;8.580;2024-02-14T14:20:13;0.93;;;0.83;;
32786;SDS011;19139;49.372;8.580;2024-02-14T14:22:40;0.70;;;0.70;;
32786;SDS011;19139;49.372;8.580;2024-02-14T14:25:07;1.13;;;0.80;;
32786;SDS011;19139;49.372;8.580;2024-02-14T14:27:35;1.50;;;1.10;;
32786;SDS011;19139;49.372;8.580;2024-02-14T14:30:02;2.27;;;1.00;;
32786;SDS011;19139;49.372;8.580;2024-02-14T14:32:30;1.80;;;1.17;;
32786;SDS011;19139;49.372;8.580;2024-02-14T14:34:57;1.47;;;1.10;;
32786;SDS011;19139;49.372;8.580;2024-02-14T14:37:23;1.40;;;1.10;;
32786;SDS011;19139;49.372;8.580;2024-02-14T14:39:50;1.23;;;0.83;;
32786;SDS011;19139;49.372;8.580;2024-02-14T14:42:17;3.57;;;1.27;;
32786;SDS011;19139;49.372;8.580;2024-02-14T14:44:44;2.67;;;1.20;;
32786;SDS011;19139;49.372;8.580;2024-02-14T14:47:11;11.23;;;6.23;;
32786;SDS011;19139;49.372;8.580;2024-02-14T14:49:38;14.17;;;6.63;;